createdAt,value
2018-08-11T00:00:27.011Z,18.10
2018-08-11T00:02:55.549Z,18.10
2018-08-11T00:05:24.415Z,18.10
2018-08-11T00:07:53.187Z,18.10
2018-08-11T00:10:21.712Z,18.00
2018-08-11T00:12:50.308Z,17.90
2018-08-11T00:15:20.198Z,17.80
2018-08-11T00:17:48.617Z,17.70
2018-08-11T00:20:32.899Z,17.70
2018-08-11T00:23:01.376Z,17.60
2018-08-11T00:25:30.039Z,17.60
2018-08-11T00:27:58.598Z,17.50
2018-08-11T00:30:27.227Z,17.50
2018-08-11T00:32:55.684Z,17.30
2018-08-11T00:35:24.100Z,17.20
2018-08-11T00:37:52.564Z,16.90
2018-08-11T00:40:21.218Z,16.70
2018-08-11T00:42:50.620Z,16.50
2018-08-11T00:45:19.833Z,16.30
2018-08-11T00:47:48.312Z,16.20
2018-08-11T00:50:22.741Z,16.20
2018-08-11T00:52:51.191Z,16.10
2018-08-11T00:55:19.879Z,15.90
2018-08-11T00:57:48.611Z,15.80
2018-08-11T01:00:18.500Z,15.70
2018-08-11T01:02:47.031Z,15.50
2018-08-11T01:05:17.875Z,15.30
2018-08-11T01:07:47.005Z,15.30
2018-08-11T01:10:15.912Z,15.20
2018-08-11T01:12:45.374Z,15.10
2018-08-11T01:15:16.045Z,15.00
2018-08-11T01:17:45.571Z,14.90
2018-08-11T01:20:14.520Z,14.80
2018-08-11T01:22:43.608Z,14.70
2018-08-11T01:25:12.939Z,14.50
2018-08-11T01:27:41.402Z,14.50
2018-08-11T01:30:13.668Z,14.50
2018-08-11T01:32:42.333Z,14.60
2018-08-11T01:35:11.791Z,14.60
2018-08-11T01:37:41.044Z,14.50
2018-08-11T01:40:11.290Z,14.60
2018-08-11T01:42:40.911Z,14.50
2018-08-11T01:45:10.824Z,14.50
2018-08-11T01:47:40.195Z,14.40
2018-08-11T01:50:10.136Z,14.30
2018-08-11T01:52:39.563Z,14.30
2018-08-11T01:55:08.227Z,14.20
2018-08-11T01:57:36.644Z,14.10
2018-08-11T02:00:07.362Z,14.00
2018-08-11T02:02:35.891Z,13.90
2018-08-11T02:05:05.088Z,13.90
2018-08-11T02:07:33.678Z,13.90
2018-08-11T02:10:02.163Z,13.90
2018-08-11T02:12:30.791Z,13.90
2018-08-11T02:15:00.162Z,13.90
2018-08-11T02:17:28.601Z,13.90
2018-08-11T02:19:57.041Z,13.90
2018-08-11T02:22:25.497Z,13.90
2018-08-11T02:24:54.056Z,13.90
2018-08-11T02:27:22.456Z,13.90
2018-08-11T02:29:51.145Z,13.80
2018-08-11T02:32:19.525Z,13.80
2018-08-11T02:34:47.924Z,13.70
2018-08-11T02:37:16.671Z,13.60
2018-08-11T02:39:45.120Z,13.60
2018-08-11T02:42:13.746Z,13.60
2018-08-11T02:44:42.156Z,13.50
2018-08-11T02:47:10.574Z,13.50
2018-08-11T02:49:39.293Z,13.50
2018-08-11T02:52:07.675Z,13.40
2018-08-11T02:54:36.308Z,13.40
2018-08-11T02:57:04.702Z,13.40
2018-08-11T02:59:33.092Z,13.40
2018-08-11T03:02:01.478Z,13.30
2018-08-11T03:04:29.892Z,13.30
2018-08-11T03:06:58.404Z,13.30
2018-08-11T03:09:26.936Z,13.30
2018-08-11T03:11:55.320Z,13.20
2018-08-11T03:14:23.737Z,13.20
2018-08-11T03:16:52.134Z,13.20
2018-08-11T03:19:20.730Z,13.20
2018-08-11T03:21:49.389Z,13.20
2018-08-11T03:24:17.762Z,13.20
2018-08-11T03:26:46.161Z,13.10
2018-08-11T03:29:14.591Z,13.10
2018-08-11T03:31:43.311Z,13.00
2018-08-11T03:34:11.696Z,13.00
2018-08-11T03:36:40.133Z,12.90
2018-08-11T03:39:10.899Z,12.90
2018-08-11T03:41:39.616Z,13.00
2018-08-11T03:44:08.492Z,12.90
2018-08-11T03:46:37.073Z,13.00
2018-08-11T03:49:05.800Z,12.90
2018-08-11T03:51:34.240Z,13.00
2018-08-11T03:54:02.998Z,13.10
2018-08-11T03:56:31.620Z,13.10
2018-08-11T03:59:00.009Z,13.10
2018-08-11T04:01:28.424Z,13.10
2018-08-11T04:03:56.813Z,13.10
2018-08-11T04:06:25.423Z,13.10
2018-08-11T04:08:53.816Z,13.10
2018-08-11T04:11:22.416Z,13.10
2018-08-11T04:13:50.821Z,13.10
2018-08-11T04:16:19.268Z,13.10
2018-08-11T04:18:47.874Z,13.10
2018-08-11T04:21:16.280Z,13.10
2018-08-11T04:23:44.712Z,13.00
2018-08-11T04:26:13.114Z,13.00
2018-08-11T04:28:41.505Z,13.10
2018-08-11T04:31:10.016Z,13.10
2018-08-11T04:33:38.487Z,13.00
2018-08-11T04:36:06.955Z,13.00
2018-08-11T04:38:35.464Z,13.00
2018-08-11T04:41:03.863Z,13.10
2018-08-11T04:43:32.644Z,13.10
2018-08-11T04:46:01.253Z,13.10
2018-08-11T04:48:29.696Z,13.20
2018-08-11T04:50:58.100Z,13.30
2018-08-11T04:53:26.494Z,13.30
2018-08-11T04:55:55.060Z,13.40
2018-08-11T04:58:23.484Z,13.50
2018-08-11T05:00:52.212Z,13.50
2018-08-11T05:03:20.571Z,13.50
2018-08-11T05:05:48.989Z,13.50
2018-08-11T05:08:17.381Z,13.50
2018-08-11T05:10:45.798Z,13.60
2018-08-11T05:13:14.200Z,13.60
2018-08-11T05:15:42.629Z,13.80
2018-08-11T05:18:11.044Z,14.00
2018-08-11T05:20:39.445Z,14.40
2018-08-11T05:23:07.868Z,14.90
2018-08-11T05:25:36.279Z,14.90
2018-08-11T05:28:05.010Z,14.90
2018-08-11T05:30:33.474Z,14.90
2018-08-11T05:33:01.889Z,14.80
2018-08-11T05:35:31.083Z,14.60
2018-08-11T05:37:59.603Z,14.40
2018-08-11T05:40:28.428Z,14.20
2018-08-11T05:42:57.143Z,14.10
2018-08-11T05:45:25.972Z,14.20
2018-08-11T05:47:54.380Z,14.40
2018-08-11T05:50:22.849Z,14.70
2018-08-11T05:52:51.372Z,14.70
2018-08-11T05:55:19.867Z,14.80
2018-08-11T05:57:48.249Z,14.90
2018-08-11T06:00:16.676Z,14.80
2018-08-11T06:02:45.097Z,14.60
2018-08-11T06:05:13.514Z,14.60
2018-08-11T06:07:41.909Z,14.60
2018-08-11T06:10:10.773Z,14.70
2018-08-11T06:12:39.869Z,14.80
2018-08-11T06:15:08.800Z,15.00
2018-08-11T06:17:37.783Z,15.10
2018-08-11T06:20:07.532Z,15.00
2018-08-11T06:22:36.036Z,15.10
2018-08-11T06:25:06.096Z,15.10
2018-08-11T06:27:34.514Z,15.00
2018-08-11T06:30:02.992Z,15.20
2018-08-11T06:32:31.459Z,15.30
2018-08-11T06:34:59.902Z,15.30
2018-08-11T06:37:28.288Z,15.30
2018-08-11T06:39:56.876Z,15.40
2018-08-11T06:42:25.365Z,15.40
2018-08-11T06:44:53.840Z,15.40
2018-08-11T06:47:22.253Z,15.50
2018-08-11T06:49:50.707Z,15.70
2018-08-11T06:52:19.165Z,15.80
2018-08-11T06:54:48.001Z,15.80
2018-08-11T06:57:16.712Z,15.80
2018-08-11T06:59:45.227Z,15.90
2018-08-11T07:02:13.647Z,15.80
2018-08-11T07:04:42.036Z,15.80
2018-08-11T07:07:10.506Z,15.80
2018-08-11T07:09:38.908Z,15.70
2018-08-11T07:12:07.343Z,15.70
2018-08-11T07:14:35.769Z,15.70
2018-08-11T07:17:04.185Z,15.80
2018-08-11T07:19:32.610Z,15.90
2018-08-11T07:22:01.200Z,16.00
2018-08-11T07:24:29.634Z,16.10
2018-08-11T07:26:58.052Z,16.20
2018-08-11T07:29:26.452Z,16.10
2018-08-11T07:31:54.891Z,16.20
2018-08-11T07:34:23.312Z,16.40
2018-08-11T07:36:51.773Z,16.60
2018-08-11T07:39:20.255Z,16.50
2018-08-11T07:41:55.219Z,16.50
2018-08-11T07:44:23.616Z,16.60
2018-08-11T07:46:52.068Z,16.60
2018-08-11T07:49:20.652Z,16.80
2018-08-11T07:51:49.060Z,16.80
2018-08-11T07:54:17.476Z,16.70
2018-08-11T07:56:46.000Z,16.80
2018-08-11T07:59:14.429Z,16.70
2018-08-11T08:01:43.065Z,17.00
2018-08-11T08:04:11.528Z,17.10
2018-08-11T08:06:39.947Z,17.20
2018-08-11T08:09:11.229Z,17.30
2018-08-11T08:11:40.330Z,17.40
2018-08-11T08:14:08.836Z,17.50
2018-08-11T08:16:37.276Z,17.70
2018-08-11T08:19:05.881Z,17.70
2018-08-11T08:21:34.377Z,17.80
2018-08-11T08:24:02.837Z,18.10
2018-08-11T08:26:31.507Z,18.00
2018-08-11T08:29:00.213Z,17.90
2018-08-11T08:31:28.731Z,18.10
2018-08-11T08:33:57.266Z,18.30
2018-08-11T08:36:25.600Z,18.50
2018-08-11T08:38:54.050Z,18.20
2018-08-11T08:41:22.486Z,18.20
2018-08-11T08:43:50.921Z,18.40
2018-08-11T08:46:19.917Z,18.50
2018-08-11T08:48:48.492Z,18.50
2018-08-11T08:51:16.904Z,18.50
2018-08-11T08:53:45.953Z,18.50
2018-08-11T08:56:14.408Z,18.40
2018-08-11T08:58:42.796Z,18.70
2018-08-11T09:01:11.421Z,18.90
2018-08-11T09:03:39.832Z,19.00
2018-08-11T09:06:08.279Z,18.90
2018-08-11T09:08:36.735Z,18.50
2018-08-11T09:11:05.616Z,18.40
2018-08-11T09:13:34.096Z,18.50
2018-08-11T09:16:02.872Z,18.80
2018-08-11T09:18:31.279Z,19.00
2018-08-11T09:20:59.928Z,19.20
2018-08-11T09:23:28.385Z,19.30
2018-08-11T09:25:56.800Z,19.50
2018-08-11T09:28:25.249Z,19.70
2018-08-11T09:30:53.654Z,19.40
2018-08-11T09:33:22.052Z,19.50
2018-08-11T09:35:50.756Z,21.40
2018-08-11T09:38:19.148Z,23.60
2018-08-11T09:40:47.584Z,24.40
2018-08-11T09:43:16.082Z,22.10
2018-08-11T09:45:44.559Z,22.00
2018-08-11T09:48:12.975Z,22.90
2018-08-11T09:50:41.398Z,22.20
2018-08-11T09:53:09.822Z,20.70
2018-08-11T09:55:38.228Z,20.30
2018-08-11T09:58:06.673Z,21.00
2018-08-11T10:00:40.413Z,22.50
2018-08-11T10:03:08.936Z,23.90
2018-08-11T10:05:37.331Z,24.90
2018-08-11T10:08:05.772Z,25.00
2018-08-11T10:10:34.239Z,24.80
2018-08-11T10:13:02.923Z,24.00
2018-08-11T10:15:31.372Z,23.40
2018-08-11T10:17:59.949Z,24.70
2018-08-11T10:20:28.580Z,24.80
2018-08-11T10:22:57.192Z,24.10
2018-08-11T10:25:25.588Z,23.80
2018-08-11T10:27:54.040Z,24.30
2018-08-11T10:30:22.512Z,23.10
2018-08-11T10:32:50.962Z,22.30
2018-08-11T10:35:20.203Z,22.50
2018-08-11T10:37:48.737Z,24.30
2018-08-11T10:40:17.151Z,26.00
2018-08-11T10:42:45.714Z,25.70
2018-08-11T10:45:14.200Z,24.80
2018-08-11T10:47:42.591Z,23.60
2018-08-11T10:50:11.273Z,24.30
2018-08-11T10:52:39.642Z,25.40
2018-08-11T10:55:08.072Z,26.80
2018-08-11T10:57:36.487Z,27.30
2018-08-11T11:00:05.497Z,26.70
2018-08-11T11:02:33.937Z,26.00
2018-08-11T11:05:02.369Z,24.60
2018-08-11T11:07:30.761Z,23.60
2018-08-11T11:09:59.139Z,22.70
2018-08-11T11:12:28.432Z,23.20
2018-08-11T11:14:56.820Z,23.40
2018-08-11T11:17:25.204Z,22.90
2018-08-11T11:19:53.641Z,23.60
2018-08-11T11:22:22.084Z,24.60
2018-08-11T11:24:50.448Z,24.20
2018-08-11T11:27:19.187Z,23.10
2018-08-11T11:29:47.568Z,22.60
2018-08-11T11:32:16.842Z,22.30
2018-08-11T11:34:45.309Z,22.80
2018-08-11T11:37:13.989Z,24.30
2018-08-11T11:39:42.459Z,25.20
2018-08-11T11:42:10.872Z,24.60
2018-08-11T11:44:39.266Z,24.10
2018-08-11T11:47:07.645Z,25.60
2018-08-11T11:49:36.252Z,24.80
2018-08-11T11:52:04.669Z,24.30
2018-08-11T11:54:33.105Z,24.60
2018-08-11T11:57:01.776Z,25.90
2018-08-11T11:59:30.357Z,26.40
2018-08-11T12:01:58.820Z,26.30
2018-08-11T12:04:27.345Z,27.10
2018-08-11T12:06:55.777Z,27.90
2018-08-11T12:09:24.231Z,26.00
2018-08-11T12:11:52.872Z,25.60
2018-08-11T12:14:21.261Z,25.20
2018-08-11T12:16:49.679Z,25.80
2018-08-11T12:19:18.384Z,24.80
2018-08-11T12:21:46.768Z,25.70
2018-08-11T12:24:15.255Z,25.30
2018-08-11T12:26:43.809Z,24.20
2018-08-11T12:29:12.252Z,24.20
2018-08-11T12:31:40.794Z,24.10
2018-08-11T12:34:09.418Z,24.40
2018-08-11T12:36:37.801Z,25.70
2018-08-11T12:39:09.525Z,26.50
2018-08-11T12:41:38.388Z,26.00
2018-08-11T12:44:06.917Z,26.60
2018-08-11T12:46:35.484Z,26.50
2018-08-11T12:49:03.921Z,25.20
2018-08-11T12:51:32.404Z,24.90
2018-08-11T12:54:01.164Z,25.10
2018-08-11T12:56:29.653Z,25.60
2018-08-11T12:58:58.124Z,25.40
2018-08-11T13:01:26.941Z,25.90
2018-08-11T13:03:55.784Z,26.60
2018-08-11T13:06:24.461Z,25.70
2018-08-11T13:08:53.147Z,24.10
2018-08-11T13:11:21.614Z,23.80
2018-08-11T13:13:50.172Z,24.40
2018-08-11T13:16:18.604Z,24.90
2018-08-11T13:18:47.284Z,24.60
2018-08-11T13:21:15.752Z,24.10
2018-08-11T13:23:44.260Z,24.20
2018-08-11T13:26:12.709Z,24.70
2018-08-11T13:28:41.364Z,24.40
2018-08-11T13:31:10.075Z,24.30
2018-08-11T13:33:38.505Z,24.40
2018-08-11T13:36:06.940Z,25.20
2018-08-11T13:38:35.521Z,24.80
2018-08-11T13:41:04.089Z,24.00
2018-08-11T13:43:32.777Z,24.30
2018-08-11T13:46:01.184Z,24.30
2018-08-11T13:48:29.632Z,24.10
2018-08-11T13:50:58.112Z,24.40
2018-08-11T13:53:26.549Z,24.30
2018-08-11T13:55:55.208Z,24.60
2018-08-11T13:58:23.648Z,24.40
2018-08-11T14:00:52.084Z,23.90
2018-08-11T14:03:20.717Z,23.70
2018-08-11T14:05:49.433Z,24.10
2018-08-11T14:08:17.871Z,24.50
2018-08-11T14:10:46.284Z,24.20
2018-08-11T14:13:14.724Z,24.30
2018-08-11T14:15:43.484Z,24.10
2018-08-11T14:18:11.931Z,23.50
2018-08-11T14:20:40.353Z,23.50
2018-08-11T14:23:09.176Z,23.60
2018-08-11T14:25:37.572Z,23.40
2018-08-11T14:28:06.649Z,23.70
2018-08-11T14:30:35.148Z,24.20
2018-08-11T14:33:03.613Z,24.70
2018-08-11T14:35:32.090Z,25.00
2018-08-11T14:38:00.575Z,25.50
2018-08-11T14:40:29.264Z,24.60
2018-08-11T14:42:58.013Z,24.80
2018-08-11T14:45:26.563Z,25.10
2018-08-11T14:47:55.153Z,24.20
2018-08-11T14:50:23.912Z,23.90
2018-08-11T14:52:52.324Z,23.90
2018-08-11T14:55:20.769Z,23.80
2018-08-11T14:57:49.160Z,23.90
2018-08-11T15:00:17.610Z,24.10
2018-08-11T15:02:46.367Z,24.40
2018-08-11T15:05:14.832Z,24.60
2018-08-11T15:07:43.262Z,24.20
2018-08-11T15:10:12.141Z,24.30
2018-08-11T15:12:40.444Z,24.60
2018-08-11T15:15:10.089Z,24.60
2018-08-11T15:17:39.448Z,24.10
2018-08-11T15:20:08.560Z,23.80
2018-08-11T15:22:37.809Z,23.60
2018-08-11T15:25:06.751Z,23.90
2018-08-11T15:27:35.152Z,24.20
2018-08-11T15:30:05.240Z,24.30
2018-08-11T15:32:33.676Z,24.10
2018-08-11T15:35:02.481Z,23.80
2018-08-11T15:37:31.017Z,23.70
2018-08-11T15:39:59.477Z,23.80
2018-08-11T15:42:28.012Z,23.60
2018-08-11T15:44:56.973Z,23.90
2018-08-11T15:47:25.396Z,24.10
2018-08-11T15:49:54.074Z,24.30
2018-08-11T15:52:22.660Z,24.20
2018-08-11T15:54:51.288Z,23.60
2018-08-11T15:57:19.754Z,23.10
2018-08-11T15:59:48.216Z,22.90
2018-08-11T16:02:17.173Z,23.10
2018-08-11T16:04:45.761Z,23.30
2018-08-11T16:07:14.162Z,23.20
2018-08-11T16:09:42.589Z,23.20
2018-08-11T16:12:11.078Z,22.80
2018-08-11T16:14:39.542Z,22.60
2018-08-11T16:17:08.098Z,22.50
2018-08-11T16:19:36.564Z,22.40
2018-08-11T16:22:05.253Z,22.40
2018-08-11T16:24:33.661Z,22.40
2018-08-11T16:27:02.343Z,22.30
2018-08-11T16:29:31.081Z,22.20
2018-08-11T16:31:59.513Z,22.20
2018-08-11T16:34:27.953Z,22.40
2018-08-11T16:36:56.376Z,22.60
2018-08-11T16:39:24.862Z,22.70
2018-08-11T16:41:53.258Z,22.80
2018-08-11T16:44:21.892Z,22.90
2018-08-11T16:46:50.304Z,22.90
2018-08-11T16:49:19.169Z,22.80
2018-08-11T16:51:47.856Z,22.40
2018-08-11T16:54:16.282Z,22.10
2018-08-11T16:56:44.915Z,21.80
2018-08-11T16:59:13.340Z,21.80
2018-08-11T17:01:41.738Z,21.80
2018-08-11T17:04:10.432Z,21.90
2018-08-11T17:06:38.899Z,22.00
2018-08-11T17:09:10.469Z,22.10
2018-08-11T17:11:38.876Z,22.10
2018-08-11T17:14:08.031Z,22.10
2018-08-11T17:16:36.883Z,22.10
2018-08-11T17:19:05.595Z,22.00
2018-08-11T17:21:34.107Z,22.10
2018-08-11T17:24:02.800Z,22.00
2018-08-11T17:26:31.239Z,22.00
2018-08-11T17:28:59.738Z,21.90
2018-08-11T17:31:28.546Z,21.90
2018-08-11T17:33:57.386Z,21.80
2018-08-11T17:36:25.856Z,21.70
2018-08-11T17:38:54.393Z,21.70
2018-08-11T17:41:22.768Z,21.70
2018-08-11T17:43:51.559Z,21.70
2018-08-11T17:46:19.992Z,21.60
2018-08-11T17:48:48.468Z,21.50
2018-08-11T17:51:16.924Z,21.40
2018-08-11T17:53:45.335Z,21.30
2018-08-11T17:56:13.832Z,21.30
2018-08-11T17:58:42.244Z,21.20
2018-08-11T18:01:10.916Z,21.20
2018-08-11T18:03:39.359Z,21.10
2018-08-11T18:06:07.853Z,21.00
2018-08-11T18:08:36.316Z,20.90
2018-08-11T18:11:04.785Z,20.90
2018-08-11T18:13:33.210Z,20.80
2018-08-11T18:16:01.639Z,20.70
2018-08-11T18:18:30.229Z,20.70
2018-08-11T18:20:58.728Z,20.60
2018-08-11T18:23:27.321Z,20.50
2018-08-11T18:25:55.721Z,20.30
2018-08-11T18:28:24.145Z,20.30
2018-08-11T18:30:52.597Z,20.20
2018-08-11T18:33:20.999Z,20.10
2018-08-11T18:35:49.456Z,20.10
2018-08-11T18:38:17.897Z,20.00
2018-08-11T18:40:46.346Z,19.90
2018-08-11T18:43:14.755Z,19.80
2018-08-11T18:45:43.188Z,19.70
2018-08-11T18:48:11.845Z,19.60
2018-08-11T18:50:40.366Z,19.50
2018-08-11T18:53:08.809Z,19.40
2018-08-11T18:55:37.430Z,19.30
2018-08-11T18:58:06.356Z,19.20
2018-08-11T19:00:37.210Z,19.10
2018-08-11T19:03:05.996Z,19.00
2018-08-11T19:05:34.417Z,18.90
2018-08-11T19:08:02.884Z,18.80
2018-08-11T19:10:31.288Z,18.70
2018-08-11T19:12:59.822Z,18.60
2018-08-11T19:15:28.500Z,18.60
2018-08-11T19:17:56.981Z,18.40
2018-08-11T19:20:25.460Z,18.30
2018-08-11T19:22:54.163Z,18.20
2018-08-11T19:25:22.672Z,18.10
2018-08-11T19:27:51.060Z,18.00
2018-08-11T19:30:19.644Z,17.90
2018-08-11T19:32:48.135Z,17.80
2018-08-11T19:35:16.480Z,17.70
2018-08-11T19:37:46.065Z,17.50
2018-08-11T19:40:14.508Z,17.40
2018-08-11T19:42:42.963Z,17.30
2018-08-11T19:45:12.409Z,17.30
2018-08-11T19:47:41.389Z,17.30
2018-08-11T19:50:11.198Z,17.10
2018-08-11T19:52:40.405Z,17.00
2018-08-11T19:55:09.275Z,16.70
2018-08-11T19:57:37.995Z,16.50
2018-08-11T20:00:09.626Z,16.40
2018-08-11T20:02:38.624Z,16.30
2018-08-11T20:05:07.804Z,16.30
2018-08-11T20:07:36.480Z,16.30
2018-08-11T20:10:05.981Z,16.20
2018-08-11T20:12:34.485Z,16.40
2018-08-11T20:15:02.988Z,16.30
2018-08-11T20:17:31.589Z,16.20
2018-08-11T20:20:00.359Z,16.10
2018-08-11T20:22:28.868Z,16.20
2018-08-11T20:24:57.372Z,16.20
2018-08-11T20:27:26.137Z,16.30
2018-08-11T20:29:54.592Z,16.20
2018-08-11T20:32:23.164Z,16.00
2018-08-11T20:34:51.732Z,15.90
2018-08-11T20:37:20.265Z,15.80
2018-08-11T20:39:48.757Z,15.70
2018-08-11T20:42:17.292Z,15.90
2018-08-11T20:44:45.910Z,15.80
2018-08-11T20:47:14.742Z,15.70
2018-08-11T20:49:43.192Z,15.60
2018-08-11T20:52:11.642Z,15.60
2018-08-11T20:54:40.433Z,15.50
2018-08-11T20:57:08.952Z,15.50
2018-08-11T20:59:37.388Z,15.40
2018-08-11T21:02:06.085Z,15.30
2018-08-11T21:04:34.552Z,15.20
2018-08-11T21:07:02.988Z,15.10
2018-08-11T21:09:31.472Z,15.10
2018-08-11T21:12:00.138Z,15.00
2018-08-11T21:14:28.601Z,14.90
2018-08-11T21:16:57.214Z,14.90
2018-08-11T21:19:25.920Z,14.80
2018-08-11T21:21:54.504Z,14.80
2018-08-11T21:24:22.929Z,14.80
2018-08-11T21:26:51.384Z,14.70
2018-08-11T21:29:19.993Z,14.70
2018-08-11T21:31:48.634Z,14.70
2018-08-11T21:34:17.108Z,14.60
2018-08-11T21:36:46.040Z,14.50
2018-08-11T21:39:14.978Z,14.50
2018-08-11T21:41:44.157Z,14.40
2018-08-11T21:44:12.649Z,14.40
2018-08-11T21:46:41.093Z,14.50
2018-08-11T21:49:10.653Z,14.50
2018-08-11T21:51:39.137Z,14.40
2018-08-11T21:54:09.639Z,14.40
2018-08-11T21:56:38.314Z,14.30
2018-08-11T21:59:07.204Z,14.30
2018-08-11T22:01:35.824Z,14.20
2018-08-11T22:04:04.859Z,14.20
2018-08-11T22:06:33.271Z,14.20
2018-08-11T22:09:01.706Z,14.10
2018-08-11T22:11:30.141Z,14.00
2018-08-11T22:13:58.721Z,13.90
2018-08-11T22:16:27.143Z,13.90
2018-08-11T22:18:55.806Z,13.80
2018-08-11T22:21:24.697Z,13.80
2018-08-11T22:23:53.119Z,13.90
2018-08-11T22:26:21.752Z,13.90
2018-08-11T22:28:50.213Z,13.90
2018-08-11T22:31:18.696Z,13.80
2018-08-11T22:33:47.292Z,13.80
2018-08-11T22:36:15.747Z,13.90
2018-08-11T22:38:44.324Z,13.80
2018-08-11T22:41:13.184Z,13.80
2018-08-11T22:43:41.586Z,13.70
2018-08-11T22:46:10.120Z,13.80
2018-08-11T22:48:38.771Z,13.70
2018-08-11T22:51:07.244Z,13.50
2018-08-11T22:53:35.685Z,13.50
2018-08-11T22:56:04.127Z,13.50
2018-08-11T22:58:32.602Z,13.40
2018-08-11T23:01:01.026Z,13.50
2018-08-11T23:03:29.457Z,13.50
2018-08-11T23:05:57.986Z,13.50
2018-08-11T23:08:26.891Z,13.50
2018-08-11T23:10:55.376Z,13.50
2018-08-11T23:13:24.112Z,13.30
2018-08-11T23:15:52.740Z,13.10
2018-08-11T23:18:21.336Z,13.00
2018-08-11T23:20:49.810Z,13.10
2018-08-11T23:23:18.288Z,13.10
2018-08-11T23:25:46.732Z,13.10
2018-08-11T23:28:15.276Z,13.10
2018-08-11T23:30:43.675Z,13.10
2018-08-11T23:33:12.132Z,13.10
2018-08-11T23:35:40.834Z,13.10
2018-08-11T23:38:09.347Z,13.10
2018-08-11T23:40:37.729Z,13.10
2018-08-11T23:43:06.883Z,13.10
2018-08-11T23:45:35.380Z,13.00
2018-08-11T23:48:04.432Z,13.00
2018-08-11T23:50:32.876Z,13.00
2018-08-11T23:53:01.317Z,13.10
2018-08-11T23:55:30.211Z,13.20
2018-08-11T23:57:58.647Z,13.30
